createdAt,value
2019-02-03T00:00:53.788Z,2.90
2019-02-03T00:03:20.076Z,2.90
2019-02-03T00:05:46.481Z,2.90
2019-02-03T00:08:12.798Z,2.80
2019-02-03T00:10:39.180Z,2.70
2019-02-03T00:13:05.578Z,2.80
2019-02-03T00:15:32.006Z,2.80
2019-02-03T00:17:58.397Z,2.70
2019-02-03T00:20:24.872Z,2.70
2019-02-03T00:22:51.115Z,2.70
2019-02-03T00:25:17.374Z,2.70
2019-02-03T00:27:43.724Z,2.70
2019-02-03T00:30:12.868Z,2.70
2019-02-03T00:32:39.353Z,2.80
2019-02-03T00:35:06.253Z,2.80
2019-02-03T00:37:32.713Z,2.90
2019-02-03T00:39:59.092Z,2.80
2019-02-03T00:42:25.504Z,2.80
2019-02-03T00:44:51.786Z,2.80
2019-02-03T00:47:18.065Z,2.80
2019-02-03T00:49:44.441Z,2.80
2019-02-03T00:52:11.225Z,2.70
2019-02-03T00:54:37.637Z,2.90
2019-02-03T00:57:04.019Z,2.90
2019-02-03T00:59:30.407Z,2.90
2019-02-03T01:01:56.939Z,2.90
2019-02-03T01:04:23.439Z,2.90
2019-02-03T01:06:49.920Z,2.90
2019-02-03T01:09:16.905Z,2.80
2019-02-03T01:11:43.293Z,2.80
2019-02-03T01:14:09.820Z,2.80
2019-02-03T01:16:36.300Z,2.80
2019-02-03T01:19:02.901Z,2.80
2019-02-03T01:21:29.266Z,2.80
2019-02-03T01:23:55.513Z,2.70
2019-02-03T01:26:21.997Z,2.60
2019-02-03T01:28:48.252Z,2.70
2019-02-03T01:31:14.775Z,2.60
2019-02-03T01:33:41.067Z,2.60
2019-02-03T01:36:07.545Z,2.60
2019-02-03T01:38:33.920Z,2.60
2019-02-03T01:41:00.412Z,2.60
2019-02-03T01:43:26.729Z,2.60
2019-02-03T01:45:53.133Z,2.60
2019-02-03T01:48:19.530Z,2.60
2019-02-03T01:50:45.781Z,2.70
2019-02-03T01:53:12.124Z,2.70
2019-02-03T01:55:38.503Z,2.70
2019-02-03T01:58:04.894Z,2.70
2019-02-03T02:00:31.307Z,2.80
2019-02-03T02:02:57.810Z,2.70
2019-02-03T02:05:24.149Z,2.70
2019-02-03T02:07:52.026Z,2.60
2019-02-03T02:10:26.577Z,2.70
2019-02-03T02:12:52.942Z,2.70
2019-02-03T02:15:20.105Z,2.80
2019-02-03T02:17:47.409Z,2.80
2019-02-03T02:20:24.883Z,2.90
2019-02-03T02:22:51.389Z,2.90
2019-02-03T02:25:17.751Z,2.90
2019-02-03T02:27:44.197Z,3.00
2019-02-03T02:30:16.732Z,3.00
2019-02-03T02:32:42.976Z,3.00
2019-02-03T02:35:10.519Z,3.10
2019-02-03T02:37:36.819Z,3.00
2019-02-03T02:40:13.067Z,2.90
2019-02-03T02:42:35.051Z,2.90
2019-02-03T02:45:01.571Z,3.00
2019-02-03T02:47:28.227Z,2.90
2019-02-03T02:49:54.629Z,2.90
2019-02-03T02:52:21.007Z,3.00
2019-02-03T02:54:47.400Z,2.80
2019-02-03T02:57:13.761Z,2.90
2019-02-03T02:59:40.053Z,3.00
2019-02-03T03:02:06.489Z,3.00
2019-02-03T03:04:32.950Z,2.90
2019-02-03T03:06:59.448Z,2.90
2019-02-03T03:09:25.713Z,2.90
2019-02-03T03:11:52.116Z,2.90
2019-02-03T03:14:18.415Z,2.90
2019-02-03T03:16:44.777Z,2.90
2019-02-03T03:19:11.048Z,3.00
2019-02-03T03:21:37.454Z,2.90
2019-02-03T03:24:03.830Z,3.00
2019-02-03T03:26:30.085Z,2.80
2019-02-03T03:28:56.510Z,2.80
2019-02-03T03:31:22.821Z,2.90
2019-02-03T03:33:49.079Z,2.90
2019-02-03T03:36:15.474Z,3.00
2019-02-03T03:38:41.725Z,3.00
2019-02-03T03:41:08.501Z,3.10
2019-02-03T03:43:34.854Z,3.10
2019-02-03T03:46:01.296Z,3.20
2019-02-03T03:48:27.677Z,3.20
2019-02-03T03:50:54.165Z,3.30
2019-02-03T03:53:20.584Z,3.20
2019-02-03T03:55:47.048Z,3.20
2019-02-03T03:58:13.792Z,3.20
2019-02-03T04:00:40.197Z,3.30
2019-02-03T04:03:06.617Z,3.20
2019-02-03T04:05:33.013Z,3.20
2019-02-03T04:07:59.389Z,3.10
2019-02-03T04:10:25.889Z,3.10
2019-02-03T04:12:52.335Z,3.10
2019-02-03T04:15:19.907Z,3.10
2019-02-03T04:17:46.529Z,3.20
2019-02-03T04:20:21.521Z,3.10
2019-02-03T04:22:47.854Z,3.00
2019-02-03T04:25:14.327Z,2.90
2019-02-03T04:27:40.784Z,2.90
2019-02-03T04:30:12.814Z,2.90
2019-02-03T04:32:39.192Z,2.90
2019-02-03T04:35:05.760Z,2.90
2019-02-03T04:37:32.141Z,2.90
2019-02-03T04:39:58.379Z,2.80
2019-02-03T04:42:24.751Z,2.60
2019-02-03T04:44:51.154Z,2.60
2019-02-03T04:47:17.752Z,2.60
2019-02-03T04:49:44.031Z,2.60
2019-02-03T04:52:10.397Z,2.50
2019-02-03T04:54:36.728Z,2.40
2019-02-03T04:57:03.210Z,2.40
2019-02-03T04:59:29.487Z,2.40
2019-02-03T05:01:55.867Z,2.30
2019-02-03T05:04:22.179Z,2.30
2019-02-03T05:06:48.424Z,2.30
2019-02-03T05:09:14.760Z,2.20
2019-02-03T05:11:41.037Z,2.10
2019-02-03T05:14:07.332Z,2.00
2019-02-03T05:16:33.698Z,2.10
2019-02-03T05:18:59.977Z,2.00
2019-02-03T05:21:26.496Z,2.00
2019-02-03T05:23:53.039Z,2.00
2019-02-03T05:26:19.300Z,1.80
2019-02-03T05:28:45.623Z,1.80
2019-02-03T05:31:11.969Z,1.80
2019-02-03T05:33:38.251Z,1.80
2019-02-03T05:36:04.797Z,1.80
2019-02-03T05:38:31.090Z,1.80
2019-02-03T05:40:57.644Z,1.80
2019-02-03T05:43:23.924Z,1.80
2019-02-03T05:45:50.302Z,1.80
2019-02-03T05:48:16.573Z,1.80
2019-02-03T05:50:42.864Z,1.90
2019-02-03T05:53:09.215Z,1.90
2019-02-03T05:55:35.480Z,1.90
2019-02-03T05:58:01.861Z,1.90
2019-02-03T06:00:30.248Z,1.80
2019-02-03T06:02:56.633Z,1.80
2019-02-03T06:05:22.988Z,1.90
2019-02-03T06:07:49.432Z,1.80
2019-02-03T06:10:17.031Z,1.80
2019-02-03T06:12:43.391Z,1.60
2019-02-03T06:15:10.313Z,1.60
2019-02-03T06:17:36.898Z,1.60
2019-02-03T06:20:07.072Z,1.50
2019-02-03T06:22:33.441Z,1.60
2019-02-03T06:24:59.697Z,1.60
2019-02-03T06:27:26.072Z,1.50
2019-02-03T06:29:52.340Z,1.50
2019-02-03T06:32:18.871Z,1.50
2019-02-03T06:34:45.153Z,1.50
2019-02-03T06:37:11.633Z,1.60
2019-02-03T06:39:48.125Z,1.40
2019-02-03T06:42:06.316Z,1.50
2019-02-03T06:44:32.789Z,1.50
2019-02-03T06:47:00.992Z,1.50
2019-02-03T06:49:27.777Z,1.40
2019-02-03T06:51:54.168Z,1.50
2019-02-03T06:54:20.545Z,1.50
2019-02-03T06:56:46.970Z,1.50
2019-02-03T06:59:13.339Z,1.40
2019-02-03T07:01:39.645Z,1.50
2019-02-03T07:04:06.100Z,1.50
2019-02-03T07:06:32.876Z,1.40
2019-02-03T07:08:59.248Z,1.40
2019-02-03T07:11:25.559Z,1.50
2019-02-03T07:13:51.968Z,1.50
2019-02-03T07:16:18.484Z,1.50
2019-02-03T07:18:44.731Z,1.50
2019-02-03T07:21:11.204Z,1.50
2019-02-03T07:23:37.536Z,1.50
2019-02-03T07:26:04.010Z,1.50
2019-02-03T07:28:30.420Z,1.40
2019-02-03T07:30:56.785Z,1.40
2019-02-03T07:33:23.053Z,1.40
2019-02-03T07:35:49.431Z,1.40
2019-02-03T07:38:15.783Z,1.40
2019-02-03T07:40:42.066Z,1.50
2019-02-03T07:43:09.253Z,1.50
2019-02-03T07:45:35.575Z,1.40
2019-02-03T07:48:01.954Z,1.50
2019-02-03T07:50:33.947Z,1.50
2019-02-03T07:53:00.231Z,1.50
2019-02-03T07:55:26.709Z,1.40
2019-02-03T07:57:52.973Z,1.40
2019-02-03T08:00:20.259Z,1.40
2019-02-03T08:02:46.710Z,1.40
2019-02-03T08:05:13.163Z,1.40
2019-02-03T08:07:59.416Z,1.40
2019-02-03T08:10:27.866Z,1.40
2019-02-03T08:12:54.059Z,1.40
2019-02-03T08:15:20.548Z,1.50
2019-02-03T08:17:46.903Z,1.40
2019-02-03T08:20:35.018Z,1.40
2019-02-03T08:23:01.337Z,1.50
2019-02-03T08:25:28.037Z,1.50
2019-02-03T08:27:54.625Z,1.40
2019-02-03T08:30:30.841Z,1.60
2019-02-03T08:32:57.425Z,1.60
2019-02-03T08:35:23.866Z,1.50
2019-02-03T08:37:50.253Z,1.50
2019-02-03T08:40:36.108Z,1.50
2019-02-03T08:42:55.796Z,1.60
2019-02-03T08:45:22.979Z,1.60
2019-02-03T08:47:49.644Z,1.60
2019-02-03T08:50:18.027Z,1.60
2019-02-03T08:52:44.639Z,1.60
2019-02-03T08:55:11.565Z,1.60
2019-02-03T08:57:37.851Z,1.50
2019-02-03T09:00:19.751Z,1.60
2019-02-03T09:02:46.344Z,1.60
2019-02-03T09:05:14.832Z,1.60
2019-02-03T09:07:41.426Z,1.60
2019-02-03T09:10:10.779Z,1.60
2019-02-03T09:12:37.135Z,1.70
2019-02-03T09:15:10.049Z,1.60
2019-02-03T09:17:36.299Z,1.60
2019-02-03T09:20:06.390Z,1.60
2019-02-03T09:22:33.263Z,1.60
2019-02-03T09:24:59.516Z,1.60
2019-02-03T09:27:25.809Z,1.60
2019-02-03T09:29:52.259Z,1.60
2019-02-03T09:32:18.576Z,1.60
2019-02-03T09:34:44.872Z,1.60
2019-02-03T09:37:11.120Z,1.60
2019-02-03T09:39:37.374Z,1.70
2019-02-03T09:42:04.271Z,1.70
2019-02-03T09:44:30.534Z,1.70
2019-02-03T09:46:56.909Z,1.70
2019-02-03T09:49:23.201Z,1.70
2019-02-03T09:51:49.589Z,1.70
2019-02-03T09:54:15.901Z,1.60
2019-02-03T09:56:42.387Z,1.70
2019-02-03T09:59:09.072Z,1.70
2019-02-03T10:01:35.307Z,1.70
2019-02-03T10:04:01.588Z,1.70
2019-02-03T10:06:27.849Z,1.60
2019-02-03T10:08:54.224Z,1.60
2019-02-03T10:11:22.832Z,1.50
2019-02-03T10:13:48.698Z,1.50
2019-02-03T10:16:14.960Z,1.50
2019-02-03T10:18:41.232Z,1.50
2019-02-03T10:21:07.608Z,1.50
2019-02-03T10:23:33.975Z,1.50
2019-02-03T10:26:00.371Z,1.40
2019-02-03T10:28:26.868Z,1.40
2019-02-03T10:30:53.132Z,1.40
2019-02-03T10:33:19.520Z,1.40
2019-02-03T10:35:46.168Z,1.40
2019-02-03T10:38:12.550Z,1.30
2019-02-03T10:40:41.102Z,1.40
2019-02-03T10:43:08.163Z,1.40
2019-02-03T10:45:34.547Z,1.40
2019-02-03T10:48:01.112Z,1.40
2019-02-03T10:50:30.531Z,1.30
2019-02-03T10:52:57.415Z,1.20
2019-02-03T10:55:23.903Z,1.30
2019-02-03T10:57:50.368Z,1.20
2019-02-03T11:00:26.220Z,1.20
2019-02-03T11:02:52.557Z,1.20
2019-02-03T11:05:21.587Z,1.20
2019-02-03T11:07:48.124Z,1.30
2019-02-03T11:10:17.393Z,1.30
2019-02-03T11:12:43.892Z,1.30
2019-02-03T11:15:12.570Z,1.30
2019-02-03T11:17:38.996Z,1.30
2019-02-03T11:20:18.398Z,1.30
2019-02-03T11:22:44.973Z,1.20
2019-02-03T11:25:12.146Z,1.30
2019-02-03T11:27:38.533Z,1.30
2019-02-03T11:30:08.616Z,1.20
2019-02-03T11:32:34.882Z,1.30
2019-02-03T11:35:01.169Z,1.30
2019-02-03T11:37:27.573Z,1.20
2019-02-03T11:39:53.853Z,1.20
2019-02-03T11:42:20.237Z,1.20
2019-02-03T11:44:46.796Z,1.20
2019-02-03T11:47:13.067Z,1.20
2019-02-03T11:49:39.420Z,1.20
2019-02-03T11:52:05.726Z,1.20
2019-02-03T11:54:32.225Z,1.20
2019-02-03T11:56:58.496Z,1.30
2019-02-03T11:59:24.871Z,1.20
2019-02-03T12:01:51.728Z,1.20
2019-02-03T12:04:18.237Z,1.20
2019-02-03T12:06:44.509Z,1.20
2019-02-03T12:09:10.996Z,1.20
2019-02-03T12:11:37.397Z,1.20
2019-02-03T12:14:03.853Z,1.20
2019-02-03T12:16:30.106Z,1.20
2019-02-03T12:18:56.700Z,1.30
2019-02-03T12:21:23.060Z,1.20
2019-02-03T12:23:49.449Z,1.30
2019-02-03T12:26:15.705Z,1.30
2019-02-03T12:28:41.989Z,1.40
2019-02-03T12:31:08.365Z,1.30
2019-02-03T12:33:34.869Z,1.40
2019-02-03T12:36:01.494Z,1.30
2019-02-03T12:38:27.771Z,1.30
2019-02-03T12:40:54.115Z,1.40
2019-02-03T12:43:20.504Z,1.40
2019-02-03T12:45:46.859Z,1.40
2019-02-03T12:48:13.369Z,1.40
2019-02-03T12:50:39.913Z,1.40
2019-02-03T12:53:06.703Z,1.50
2019-02-03T12:55:33.198Z,1.50
2019-02-03T12:57:59.650Z,1.50
2019-02-03T13:00:28.899Z,1.40
2019-02-03T13:02:55.287Z,1.40
2019-02-03T13:05:23.461Z,1.40
2019-02-03T13:07:50.450Z,1.40
2019-02-03T13:10:25.361Z,1.40
2019-02-03T13:12:51.863Z,1.30
2019-02-03T13:15:24.170Z,1.40
2019-02-03T13:17:50.654Z,1.30
2019-02-03T13:20:22.544Z,1.40
2019-02-03T13:22:49.608Z,1.40
2019-02-03T13:25:16.596Z,1.40
2019-02-03T13:27:42.945Z,1.40
2019-02-03T13:30:13.048Z,1.30
2019-02-03T13:32:39.532Z,1.30
2019-02-03T13:35:07.304Z,1.40
2019-02-03T13:37:33.591Z,1.30
2019-02-03T13:39:59.957Z,1.30
2019-02-03T13:42:36.538Z,1.30
2019-02-03T13:44:54.408Z,1.30
2019-02-03T13:47:20.820Z,1.20
2019-02-03T13:49:47.108Z,1.30
2019-02-03T13:52:13.492Z,1.30
2019-02-03T13:54:39.763Z,1.30
2019-02-03T13:57:06.300Z,1.30
2019-02-03T13:59:32.711Z,1.30
2019-02-03T14:01:59.166Z,1.20
2019-02-03T14:04:25.518Z,1.20
2019-02-03T14:06:51.812Z,1.10
2019-02-03T14:09:18.256Z,1.10
2019-02-03T14:11:44.636Z,1.10
2019-02-03T14:14:10.908Z,1.10
2019-02-03T14:16:37.260Z,1.10
2019-02-03T14:19:03.782Z,1.10
2019-02-03T14:21:30.121Z,1.10
2019-02-03T14:23:56.380Z,1.10
2019-02-03T14:26:22.785Z,1.00
2019-02-03T14:28:50.051Z,1.00
2019-02-03T14:31:16.337Z,1.00
2019-02-03T14:33:42.722Z,1.00
2019-02-03T14:36:09.084Z,0.90
2019-02-03T14:38:35.484Z,1.00
2019-02-03T14:41:01.842Z,0.90
2019-02-03T14:43:28.119Z,1.00
2019-02-03T14:45:54.596Z,1.00
2019-02-03T14:48:20.982Z,1.00
2019-02-03T14:50:47.397Z,1.00
2019-02-03T14:53:13.669Z,0.90
2019-02-03T14:55:42.121Z,0.90
2019-02-03T14:58:08.507Z,0.90
2019-02-03T15:00:37.381Z,0.90
2019-02-03T15:03:09.087Z,0.90
2019-02-03T15:05:35.454Z,0.80
2019-02-03T15:08:01.970Z,0.80
2019-02-03T15:10:30.327Z,0.80
2019-02-03T15:12:56.501Z,0.80
2019-02-03T15:15:27.705Z,0.80
2019-02-03T15:17:54.394Z,0.90
2019-02-03T15:20:25.578Z,0.90
2019-02-03T15:22:52.440Z,0.80
2019-02-03T15:25:19.025Z,0.90
2019-02-03T15:27:45.491Z,0.80
2019-02-03T15:30:19.645Z,0.90
2019-02-03T15:32:45.760Z,0.90
2019-02-03T15:35:14.239Z,0.80
2019-02-03T15:37:40.819Z,0.80
2019-02-03T15:40:21.366Z,0.80
2019-02-03T15:42:47.866Z,0.80
2019-02-03T15:45:16.532Z,0.80
2019-02-03T15:47:43.001Z,0.70
2019-02-03T15:50:15.834Z,0.80
2019-02-03T15:52:42.287Z,0.70
2019-02-03T15:55:12.401Z,0.80
2019-02-03T15:57:38.668Z,0.80
2019-02-03T16:00:12.008Z,0.70
2019-02-03T16:02:38.333Z,0.60
2019-02-03T16:05:07.096Z,0.70
2019-02-03T16:07:33.392Z,0.70
2019-02-03T16:09:59.742Z,0.70
2019-02-03T16:12:26.887Z,0.60
2019-02-03T16:14:53.463Z,0.60
2019-02-03T16:17:39.705Z,0.60
2019-02-03T16:20:15.263Z,0.60
2019-02-03T16:22:41.782Z,0.60
2019-02-03T16:25:09.243Z,0.60
2019-02-03T16:27:36.017Z,0.50
2019-02-03T16:30:05.663Z,0.60
2019-02-03T16:32:32.024Z,0.50
2019-02-03T16:34:58.388Z,0.50
2019-02-03T16:37:24.688Z,0.50
2019-02-03T16:39:51.188Z,0.50
2019-02-03T16:42:17.490Z,0.60
2019-02-03T16:44:43.792Z,0.60
2019-02-03T16:47:10.285Z,0.60
2019-02-03T16:49:36.666Z,0.60
2019-02-03T16:52:03.658Z,0.60
2019-02-03T16:54:30.018Z,0.60
2019-02-03T16:56:56.382Z,0.60
2019-02-03T16:59:22.696Z,0.60
2019-02-03T17:01:49.260Z,0.60
2019-02-03T17:04:15.742Z,0.60
2019-02-03T17:06:42.101Z,0.50
2019-02-03T17:09:09.262Z,0.40
2019-02-03T17:11:35.553Z,0.40
2019-02-03T17:14:01.919Z,0.60
2019-02-03T17:16:28.380Z,0.60
2019-02-03T17:18:54.673Z,0.50
2019-02-03T17:21:21.441Z,0.50
2019-02-03T17:23:47.788Z,0.50
2019-02-03T17:26:14.070Z,0.40
2019-02-03T17:28:40.317Z,0.40
2019-02-03T17:31:06.780Z,0.40
2019-02-03T17:33:52.930Z,0.30
2019-02-03T17:36:19.309Z,0.40
2019-02-03T17:38:45.592Z,0.40
2019-02-03T17:41:11.949Z,0.40
2019-02-03T17:43:38.267Z,0.40
2019-02-03T17:46:04.710Z,0.40
2019-02-03T17:48:31.116Z,0.40
2019-02-03T17:50:57.403Z,0.40
2019-02-03T17:53:23.994Z,0.40
2019-02-03T17:55:50.412Z,0.40
2019-02-03T17:58:16.675Z,0.40
2019-02-03T18:00:53.812Z,0.40
2019-02-03T18:03:20.284Z,0.30
2019-02-03T18:05:46.664Z,0.30
2019-02-03T18:08:13.327Z,0.30
2019-02-03T18:10:39.714Z,0.30
2019-02-03T18:13:06.993Z,0.40
2019-02-03T18:15:33.474Z,0.30
2019-02-03T18:17:59.841Z,0.30
2019-02-03T18:20:27.764Z,0.30
2019-02-03T18:22:54.297Z,0.30
2019-02-03T18:25:20.983Z,0.30
2019-02-03T18:27:47.492Z,0.30
2019-02-03T18:30:19.693Z,0.30
2019-02-03T18:32:46.048Z,0.30
2019-02-03T18:35:12.936Z,0.30
2019-02-03T18:37:39.351Z,0.30
2019-02-03T18:40:14.649Z,0.20
2019-02-03T18:42:41.117Z,0.20
2019-02-03T18:45:10.337Z,0.20
2019-02-03T18:47:36.779Z,0.30
2019-02-03T18:50:12.752Z,0.30
2019-02-03T18:52:39.126Z,0.30
2019-02-03T18:55:09.588Z,0.20
2019-02-03T18:57:35.896Z,0.20
2019-02-03T19:00:05.953Z,0.20
2019-02-03T19:02:32.325Z,0.20
2019-02-03T19:04:58.609Z,0.20
2019-02-03T19:07:24.980Z,0.20
2019-02-03T19:09:51.330Z,0.30
2019-02-03T19:12:18.036Z,0.20
2019-02-03T19:14:47.320Z,0.20
2019-02-03T19:17:12.674Z,0.30
2019-02-03T19:19:38.972Z,0.30
2019-02-03T19:22:05.405Z,0.30
2019-02-03T19:24:31.699Z,0.30
2019-02-03T19:26:57.959Z,0.30
2019-02-03T19:29:24.499Z,0.20
2019-02-03T19:31:50.752Z,0.30
2019-02-03T19:34:17.121Z,0.20
2019-02-03T19:36:43.407Z,0.30
2019-02-03T19:39:09.765Z,0.20
2019-02-03T19:41:36.099Z,0.20
2019-02-03T19:44:02.888Z,0.30
2019-02-03T19:46:29.661Z,0.20
2019-02-03T19:48:55.972Z,0.20
2019-02-03T19:51:22.241Z,0.30
2019-02-03T19:53:48.541Z,0.30
2019-02-03T19:56:15.008Z,0.30
2019-02-03T19:58:41.376Z,0.30
2019-02-03T20:01:07.912Z,0.40
2019-02-03T20:03:34.260Z,0.30
2019-02-03T20:06:00.966Z,0.30
2019-02-03T20:08:27.246Z,0.40
2019-02-03T20:10:53.542Z,0.50
2019-02-03T20:13:19.833Z,0.40
2019-02-03T20:15:46.096Z,0.40
2019-02-03T20:18:12.593Z,0.30
2019-02-03T20:20:42.340Z,0.40
2019-02-03T20:23:09.200Z,0.40
2019-02-03T20:25:35.481Z,0.40
2019-02-03T20:28:01.989Z,0.40
2019-02-03T20:30:37.980Z,0.40
2019-02-03T20:32:57.187Z,0.40
2019-02-03T20:35:25.640Z,0.40
2019-02-03T20:37:52.138Z,0.40
2019-02-03T20:40:31.176Z,0.40
2019-02-03T20:42:57.685Z,0.40
2019-02-03T20:45:24.197Z,0.30
2019-02-03T20:47:50.657Z,0.40
2019-02-03T20:50:22.109Z,0.30
2019-02-03T20:52:49.331Z,0.30
2019-02-03T20:55:17.695Z,0.40
2019-02-03T20:57:44.067Z,0.40
2019-02-03T21:00:14.165Z,0.40
2019-02-03T21:02:40.555Z,0.30
2019-02-03T21:05:07.448Z,0.30
2019-02-03T21:07:33.929Z,0.30
2019-02-03T21:10:00.316Z,0.20
2019-02-03T21:12:26.702Z,0.30
2019-02-03T21:14:52.980Z,0.30
2019-02-03T21:17:19.240Z,0.40
2019-02-03T21:19:45.608Z,0.30
2019-02-03T21:22:11.992Z,0.40
2019-02-03T21:24:58.211Z,0.30
2019-02-03T21:27:24.596Z,0.40
2019-02-03T21:29:51.056Z,0.30
2019-02-03T21:32:17.430Z,0.30
2019-02-03T21:34:43.715Z,0.40
2019-02-03T21:37:10.097Z,0.30
2019-02-03T21:39:36.600Z,0.40
2019-02-03T21:42:03.255Z,0.40
2019-02-03T21:44:29.590Z,0.30
2019-02-03T21:46:55.860Z,0.30
2019-02-03T21:49:22.136Z,0.30
2019-02-03T21:51:48.429Z,0.30
2019-02-03T21:54:14.736Z,0.20
2019-02-03T21:56:41.136Z,0.30
2019-02-03T21:59:07.511Z,0.30
2019-02-03T22:01:34.072Z,0.40
2019-02-03T22:04:00.473Z,0.30
2019-02-03T22:06:26.935Z,0.30
2019-02-03T22:08:53.236Z,0.30
2019-02-03T22:11:19.632Z,0.30
2019-02-03T22:13:46.153Z,0.30
2019-02-03T22:16:12.422Z,0.30
2019-02-03T22:18:39.090Z,0.30
2019-02-03T22:21:05.467Z,0.30
2019-02-03T22:23:31.725Z,0.30
2019-02-03T22:25:58.003Z,0.30
2019-02-03T22:28:24.281Z,0.30
2019-02-03T22:30:50.784Z,0.20
2019-02-03T22:33:17.158Z,0.30
2019-02-03T22:35:43.396Z,0.30
2019-02-03T22:38:09.895Z,0.40
2019-02-03T22:40:36.312Z,0.30
2019-02-03T22:43:03.269Z,0.30
2019-02-03T22:45:29.684Z,0.30
2019-02-03T22:47:56.172Z,0.30
2019-02-03T22:50:30.552Z,0.30
2019-02-03T22:52:57.433Z,0.30
2019-02-03T22:55:23.933Z,0.30
2019-02-03T22:57:50.612Z,0.30
2019-02-03T23:00:40.716Z,0.20
2019-02-03T23:03:07.664Z,0.10
2019-02-03T23:05:34.140Z,0.10
2019-02-03T23:08:00.446Z,0.10
2019-02-03T23:10:26.803Z,0.10
2019-02-03T23:12:53.154Z,0.20
2019-02-03T23:15:19.545Z,0.10
2019-02-03T23:17:45.787Z,0.20
2019-02-03T23:20:12.254Z,0.10
2019-02-03T23:22:38.763Z,0.20
2019-02-03T23:25:05.327Z,0.10
2019-02-03T23:27:31.581Z,0.30
2019-02-03T23:29:57.846Z,0.20
2019-02-03T23:32:24.321Z,0.30
2019-02-03T23:34:50.577Z,0.20
2019-02-03T23:37:16.855Z,0.10
2019-02-03T23:39:43.379Z,0.10
2019-02-03T23:42:09.873Z,0.20
2019-02-03T23:44:36.254Z,0.20
2019-02-03T23:47:02.720Z,0.20
2019-02-03T23:49:28.999Z,0.10
2019-02-03T23:51:55.265Z,0.10
2019-02-03T23:54:21.585Z,0.20
2019-02-03T23:56:47.852Z,0.30
2019-02-03T23:59:14.408Z,0.30
